Sitka, AK

5:46 PM AKDT on July 11, 2014 (GMT -0800)
Sitka Rocky Gutierrez (PASI) Elev 20 ft | 57.05 °N, 135.36 °W | Change Station

Current weather conditions updated 23 minutes ago

Light Rain
Light Rain Mist
56 °F
Feels Like 56 °F
N
0
Wind Variable Wind from North

Tomorrow is forecast to be Warmer than today. Chance of showers.

Today
High -- | Low -- °F
--% Chance of Precip.
Yesterday
High -- | Low -- °F
Precip. -- in
4:23 AM 9:49 PM
Full, 100% visible
Pressure 30.00 in
Visibility 3.0 miles
Clouds Few 2200 ft
Mostly Cloudy 3100 ft
Overcast 3800 ft
Dew Point 55 °F
Humidity 97%
Rainfall 0.53 in
Snow Depth Not available.
UV 1 out of 12
Pollen Not available.
Air Quality Not available.
Flu Activity Sporadic
SPECI PASI 120123Z 00000KT 3SM -RA BR FEW022 BKN031 OVC038 13/13 A3000 RMK AO2 P0005 T01330128

More Conditions Fewer Conditions

Pressure 30.00 in
Visibility 3.0 miles
Clouds Few 2200 ft
Mostly Cloudy 3100 ft
Overcast 3800 ft
Dew Point 55 °F
Humidity 97%
Rainfall 0.53 in
Snow Depth Not available.
UV 1 out of 12
Pollen Not available.
Air Quality Not available.
Flu Activity Sporadic
SPECI PASI 120123Z 00000KT 3SM -RA BR FEW022 BKN031 OVC038 13/13 A3000 RMK AO2 P0005 T01330128

More Conditions Fewer Conditions

10-Day Weather Forecast

Almanac

Astronomy

Jul. 11, 2014 Rise Set
Actual Time 4:23 AM AKDT 9:49 PM AKDT
Civil Twilight 3:21 AM AKDT 10:51 PM AKDT
Nautical Twilight 1:39 AM AKDT 12:34 AM AKDT
Astronomical Twilight Sun does not rise Sun does not rise
Moon 8:46 PM AKDT (7/11) 3:59 AM AKDT (7/11)
Length of Visible Light 19h 29m
Length of Day
17h 26m
Tomorrow will be 2m 40s shorter.
Full, 100% of the Moon is Illuminated
Today
Full
Jul 12
Full
Jul 18
Last Quarter
Jul 26
New
Aug 3
First Quarter

Today's Extremes

State Highs State Lows

Community

WunderPhotos

Upload Photos

1,732,634 photos uploaded!

WunderBlogs® & News

Nearby

Snow Depth

Station Depth Elevation
Long Lake 0 in 820 ft
Upper Tsaina River 0 in 1750 ft
Grandview 0 in 1100 ft
Grouse Creek Divide 0 in 700 ft
Nuka Glacier 0 in 1250 ft

Earthquake Activity

City Distance Mag. Time & Date
No recent earthquake activity has been reported nearby.
Minimum magnitude displayed is 2.5.

Coastal Water Temperatures

Place Temperature
No Stations Reporting

Nearby Weather Stations

Station Location Temp. Dew Point Humidity Wind Precip. Elev Updated Type
CRN USGS SITKA MAGNETIC SITKA 1 NE AK , Sitka, AK 57 °F - - North  at  - 0.00 in / hr 78 ft 5:15 PM AKDT MADIS
HADS TAKATZ C NR BARANOF AK , Sitka, AK 55 °F - - North  at  - 0.00 in / hr 227 ft 4:00 PM AKDT MADIS

Show More Stations Show Fewer Stations